Terminal Aerodrome Forecast
Issued by NWS Twin Cities, MN

Home | Current Version | Previous Version | Graphics & Text | Print | Product List | Glossary On
Versions: 1 2 3 4 5 6 7 8 9 10 11 12 13 14 15 16 17 18 19 20 21 22 23 24 25 26 27 28 29 30 31
000
FTUS43 KMPX 170302 AAA
TAFMSP
TAF AMD
KMSP 170302Z 1703/1806 01005KT 6SM BR SCT018 OVC035
      TEMPO 1703/1706 4SM -FZRASN BR BKN018
     FM170600 36005KT 5SM -SN BR OVC009
     FM170800 35006KT 6SM BR OVC012
      TEMPO 1708/1712 4SM -FZDZ BR OVC008
     FM171500 33004KT P6SM BKN020
     FM171800 VRB03KT P6SM SCT020 BKN050
     FM172200 VRB03KT P6SM SCT050=

USA.gov is the U.S. government's official web portal to all federal, state and local government web resources and services.